sensor_id;sensor_type;location;lat;lon;timestamp;P1;durP1;ratioP1;P2;durP2;ratioP2
75645;SDS011;64237;52.438;13.240;2023-10-08T00:04:16;1.98;;;0.55;;
75645;SDS011;64237;52.438;13.240;2023-10-08T00:06:44;4.43;;;0.82;;
75645;SDS011;64237;52.438;13.240;2023-10-08T00:09:12;4.07;;;0.80;;
75645;SDS011;64237;52.438;13.240;2023-10-08T00:11:45;2.83;;;0.68;;
75645;SDS011;64237;52.438;13.240;2023-10-08T00:14:19;3.72;;;0.70;;
75645;SDS011;64237;52.438;13.240;2023-10-08T00:16:52;3.17;;;0.57;;
75645;SDS011;64237;52.438;13.240;2023-10-08T00:19:17;5.28;;;0.95;;
75645;SDS011;64237;52.438;13.240;2023-10-08T00:21:50;4.25;;;0.80;;
75645;SDS011;64237;52.438;13.240;2023-10-08T00:24:18;2.45;;;0.80;;
75645;SDS011;64237;52.438;13.240;2023-10-08T00:26:48;1.40;;;0.50;;
75645;SDS011;64237;52.438;13.240;2023-10-08T00:29:13;2.83;;;0.80;;
75645;SDS011;64237;52.438;13.240;2023-10-08T00:31:48;2.35;;;0.60;;
75645;SDS011;64237;52.438;13.240;2023-10-08T00:34:18;1.52;;;0.43;;
75645;SDS011;64237;52.438;13.240;2023-10-08T00:37:10;1.98;;;0.82;;
75645;SDS011;64237;52.438;13.240;2023-10-08T00:39:42;3.80;;;0.68;;
75645;SDS011;64237;52.438;13.240;2023-10-08T00:42:07;6.20;;;0.82;;
75645;SDS011;64237;52.438;13.240;2023-10-08T00:44:36;2.60;;;0.68;;
75645;SDS011;64237;52.438;13.240;2023-10-08T00:47:23;2.17;;;0.65;;
75645;SDS011;64237;52.438;13.240;2023-10-08T00:49:54;3.67;;;0.90;;
75645;SDS011;64237;52.438;13.240;2023-10-08T00:52:29;1.50;;;0.60;;
75645;SDS011;64237;52.438;13.240;2023-10-08T00:55:04;2.85;;;0.93;;
75645;SDS011;64237;52.438;13.240;2023-10-08T01:00:03;2.25;;;0.70;;
75645;SDS011;64237;52.438;13.240;2023-10-08T01:02:50;3.80;;;1.00;;
75645;SDS011;64237;52.438;13.240;2023-10-08T01:05:20;4.25;;;0.80;;
75645;SDS011;64237;52.438;13.240;2023-10-08T01:08:05;3.80;;;1.15;;
75645;SDS011;64237;52.438;13.240;2023-10-08T01:10:32;3.88;;;0.95;;
75645;SDS011;64237;52.438;13.240;2023-10-08T01:13:06;6.97;;;1.45;;
75645;SDS011;64237;52.438;13.240;2023-10-08T01:15:45;3.55;;;0.93;;
75645;SDS011;64237;52.438;13.240;2023-10-08T01:18:22;2.35;;;0.70;;
75645;SDS011;64237;52.438;13.240;2023-10-08T01:20:57;3.65;;;1.05;;
75645;SDS011;64237;52.438;13.240;2023-10-08T01:23:29;3.22;;;1.00;;
75645;SDS011;64237;52.438;13.240;2023-10-08T01:25:56;4.45;;;1.00;;
75645;SDS011;64237;52.438;13.240;2023-10-08T01:28:50;6.20;;;1.30;;
75645;SDS011;64237;52.438;13.240;2023-10-08T01:31:15;4.90;;;1.20;;
75645;SDS011;64237;52.438;13.240;2023-10-08T01:33:49;4.47;;;1.30;;
75645;SDS011;64237;52.438;13.240;2023-10-08T01:39:14;3.10;;;1.20;;
75645;SDS011;64237;52.438;13.240;2023-10-08T01:41:50;3.55;;;1.20;;
75645;SDS011;64237;52.438;13.240;2023-10-08T01:44:19;2.65;;;1.10;;
75645;SDS011;64237;52.438;13.240;2023-10-08T01:46:44;6.70;;;1.73;;
75645;SDS011;64237;52.438;13.240;2023-10-08T01:49:17;4.10;;;1.50;;
75645;SDS011;64237;52.438;13.240;2023-10-08T01:51:46;5.63;;;1.42;;
75645;SDS011;64237;52.438;13.240;2023-10-08T01:54:12;6.10;;;1.57;;
75645;SDS011;64237;52.438;13.240;2023-10-08T01:56:42;3.75;;;1.50;;
75645;SDS011;64237;52.438;13.240;2023-10-08T01:59:09;7.13;;;1.60;;
75645;SDS011;64237;52.438;13.240;2023-10-08T02:01:35;5.65;;;1.80;;
75645;SDS011;64237;52.438;13.240;2023-10-08T02:04:19;8.93;;;1.70;;
75645;SDS011;64237;52.438;13.240;2023-10-08T02:06:46;5.63;;;1.63;;
75645;SDS011;64237;52.438;13.240;2023-10-08T02:09:11;8.65;;;1.50;;
75645;SDS011;64237;52.438;13.240;2023-10-08T02:11:47;11.30;;;2.85;;
75645;SDS011;64237;52.438;13.240;2023-10-08T02:14:18;6.43;;;1.77;;
75645;SDS011;64237;52.438;13.240;2023-10-08T02:16:45;7.90;;;1.90;;
75645;SDS011;64237;52.438;13.240;2023-10-08T02:19:29;6.53;;;1.75;;
75645;SDS011;64237;52.438;13.240;2023-10-08T02:21:57;6.10;;;1.58;;
75645;SDS011;64237;52.438;13.240;2023-10-08T02:27:15;8.18;;;1.88;;
75645;SDS011;64237;52.438;13.240;2023-10-08T02:29:50;8.10;;;2.13;;
75645;SDS011;64237;52.438;13.240;2023-10-08T02:32:15;7.17;;;1.53;;
75645;SDS011;64237;52.438;13.240;2023-10-08T02:34:40;5.37;;;1.83;;
75645;SDS011;64237;52.438;13.240;2023-10-08T02:37:15;5.97;;;2.00;;
75645;SDS011;64237;52.438;13.240;2023-10-08T02:39:41;7.80;;;1.52;;
75645;SDS011;64237;52.438;13.240;2023-10-08T02:42:13;7.75;;;1.88;;
75645;SDS011;64237;52.438;13.240;2023-10-08T02:44:39;7.60;;;2.03;;
75645;SDS011;64237;52.438;13.240;2023-10-08T02:47:13;7.50;;;2.00;;
75645;SDS011;64237;52.438;13.240;2023-10-08T02:49:41;7.43;;;1.73;;
75645;SDS011;64237;52.438;13.240;2023-10-08T02:52:10;6.88;;;1.90;;
75645;SDS011;64237;52.438;13.240;2023-10-08T02:54:40;5.93;;;1.67;;
75645;SDS011;64237;52.438;13.240;2023-10-08T02:57:12;6.75;;;1.80;;
75645;SDS011;64237;52.438;13.240;2023-10-08T02:59:45;9.60;;;1.88;;
75645;SDS011;64237;52.438;13.240;2023-10-08T03:02:11;9.95;;;2.50;;
75645;SDS011;64237;52.438;13.240;2023-10-08T03:04:44;6.85;;;1.77;;
75645;SDS011;64237;52.438;13.240;2023-10-08T03:07:14;8.85;;;1.90;;
75645;SDS011;64237;52.438;13.240;2023-10-08T03:10:07;3.92;;;1.45;;
75645;SDS011;64237;52.438;13.240;2023-10-08T03:12:45;8.93;;;1.88;;
75645;SDS011;64237;52.438;13.240;2023-10-08T03:15:14;8.60;;;2.08;;
75645;SDS011;64237;52.438;13.240;2023-10-08T03:18:03;7.50;;;1.88;;
75645;SDS011;64237;52.438;13.240;2023-10-08T03:20:38;6.68;;;1.70;;
75645;SDS011;64237;52.438;13.240;2023-10-08T03:23:04;2.63;;;1.60;;
75645;SDS011;64237;52.438;13.240;2023-10-08T03:25:55;4.13;;;1.27;;
75645;SDS011;64237;52.438;13.240;2023-10-08T03:28:35;4.05;;;1.33;;
75645;SDS011;64237;52.438;13.240;2023-10-08T03:31:05;4.28;;;1.35;;
75645;SDS011;64237;52.438;13.240;2023-10-08T03:33:34;6.95;;;1.63;;
75645;SDS011;64237;52.438;13.240;2023-10-08T03:36:05;6.90;;;1.52;;
75645;SDS011;64237;52.438;13.240;2023-10-08T03:38:53;6.35;;;1.85;;
75645;SDS011;64237;52.438;13.240;2023-10-08T03:41:25;6.15;;;1.85;;
75645;SDS011;64237;52.438;13.240;2023-10-08T03:43:57;6.47;;;1.63;;
75645;SDS011;64237;52.438;13.240;2023-10-08T03:46:38;9.25;;;2.08;;
75645;SDS011;64237;52.438;13.240;2023-10-08T03:49:06;6.25;;;1.85;;
75645;SDS011;64237;52.438;13.240;2023-10-08T03:54:32;6.35;;;1.90;;
75645;SDS011;64237;52.438;13.240;2023-10-08T03:57:15;10.25;;;2.15;;
75645;SDS011;64237;52.438;13.240;2023-10-08T03:59:53;4.22;;;1.70;;
75645;SDS011;64237;52.438;13.240;2023-10-08T04:02:23;8.05;;;1.75;;
75645;SDS011;64237;52.438;13.240;2023-10-08T04:05:10;8.48;;;2.10;;
75645;SDS011;64237;52.438;13.240;2023-10-08T04:08:05;9.45;;;2.10;;
75645;SDS011;64237;52.438;13.240;2023-10-08T04:10:51;7.65;;;2.00;;
75645;SDS011;64237;52.438;13.240;2023-10-08T04:13:35;7.45;;;2.00;;
75645;SDS011;64237;52.438;13.240;2023-10-08T04:16:10;10.40;;;1.80;;
75645;SDS011;64237;52.438;13.240;2023-10-08T04:18:35;6.80;;;2.10;;
75645;SDS011;64237;52.438;13.240;2023-10-08T04:21:14;5.45;;;1.95;;
75645;SDS011;64237;52.438;13.240;2023-10-08T04:23:44;6.70;;;1.75;;
75645;SDS011;64237;52.438;13.240;2023-10-08T04:26:15;9.18;;;2.40;;
75645;SDS011;64237;52.438;13.240;2023-10-08T04:28:41;4.50;;;1.75;;
75645;SDS011;64237;52.438;13.240;2023-10-08T04:31:12;5.03;;;1.73;;
75645;SDS011;64237;52.438;13.240;2023-10-08T04:33:46;6.85;;;1.90;;
75645;SDS011;64237;52.438;13.240;2023-10-08T04:36:12;7.15;;;1.95;;
75645;SDS011;64237;52.438;13.240;2023-10-08T04:38:45;5.20;;;1.90;;
75645;SDS011;64237;52.438;13.240;2023-10-08T04:41:25;12.38;;;2.55;;
75645;SDS011;64237;52.438;13.240;2023-10-08T04:43:53;5.93;;;1.95;;
75645;SDS011;64237;52.438;13.240;2023-10-08T04:46:23;9.30;;;2.28;;
75645;SDS011;64237;52.438;13.240;2023-10-08T04:49:04;9.52;;;2.45;;
75645;SDS011;64237;52.438;13.240;2023-10-08T04:51:50;10.18;;;2.00;;
75645;SDS011;64237;52.438;13.240;2023-10-08T04:54:17;7.15;;;1.70;;
75645;SDS011;64237;52.438;13.240;2023-10-08T04:59:44;8.50;;;2.42;;
75645;SDS011;64237;52.438;13.240;2023-10-08T05:02:17;8.10;;;1.83;;
75645;SDS011;64237;52.438;13.240;2023-10-08T05:04:49;10.35;;;2.50;;
75645;SDS011;64237;52.438;13.240;2023-10-08T05:07:40;11.25;;;2.20;;
75645;SDS011;64237;52.438;13.240;2023-10-08T05:10:12;7.18;;;2.00;;
75645;SDS011;64237;52.438;13.240;2023-10-08T05:12:50;6.53;;;2.13;;
75645;SDS011;64237;52.438;13.240;2023-10-08T05:15:36;7.10;;;2.17;;
75645;SDS011;64237;52.438;13.240;2023-10-08T05:18:12;6.63;;;1.80;;
75645;SDS011;64237;52.438;13.240;2023-10-08T05:20:44;8.32;;;2.13;;
75645;SDS011;64237;52.438;13.240;2023-10-08T05:23:30;5.85;;;2.00;;
75645;SDS011;64237;52.438;13.240;2023-10-08T05:25:56;6.80;;;2.10;;
75645;SDS011;64237;52.438;13.240;2023-10-08T05:28:49;5.65;;;1.80;;
75645;SDS011;64237;52.438;13.240;2023-10-08T05:31:33;5.68;;;2.00;;
75645;SDS011;64237;52.438;13.240;2023-10-08T05:34:10;7.60;;;2.53;;
75645;SDS011;64237;52.438;13.240;2023-10-08T05:36:54;9.00;;;2.28;;
75645;SDS011;64237;52.438;13.240;2023-10-08T05:39:25;4.47;;;1.50;;
75645;SDS011;64237;52.438;13.240;2023-10-08T05:42:12;5.45;;;1.73;;
75645;SDS011;64237;52.438;13.240;2023-10-08T05:44:46;6.43;;;1.65;;
75645;SDS011;64237;52.438;13.240;2023-10-08T05:47:39;4.80;;;1.60;;
75645;SDS011;64237;52.438;13.240;2023-10-08T05:50:12;4.50;;;1.52;;
75645;SDS011;64237;52.438;13.240;2023-10-08T05:52:44;6.20;;;1.77;;
75645;SDS011;64237;52.438;13.240;2023-10-08T05:55:24;9.80;;;2.00;;
75645;SDS011;64237;52.438;13.240;2023-10-08T05:58:09;9.65;;;1.70;;
75645;SDS011;64237;52.438;13.240;2023-10-08T06:01:00;7.43;;;2.03;;
75645;SDS011;64237;52.438;13.240;2023-10-08T06:04:16;5.90;;;1.80;;
75645;SDS011;64237;52.438;13.240;2023-10-08T06:07:06;5.82;;;1.73;;
75645;SDS011;64237;52.438;13.240;2023-10-08T06:09:42;8.98;;;2.08;;
75645;SDS011;64237;52.438;13.240;2023-10-08T06:12:15;8.63;;;1.75;;
75645;SDS011;64237;52.438;13.240;2023-10-08T06:15:00;6.07;;;1.90;;
75645;SDS011;64237;52.438;13.240;2023-10-08T06:17:32;6.97;;;2.00;;
75645;SDS011;64237;52.438;13.240;2023-10-08T06:20:24;10.02;;;2.17;;
75645;SDS011;64237;52.438;13.240;2023-10-08T06:27:51;7.45;;;1.67;;
75645;SDS011;64237;52.438;13.240;2023-10-08T06:30:20;7.25;;;2.25;;
75645;SDS011;64237;52.438;13.240;2023-10-08T06:33:01;5.88;;;2.00;;
75645;SDS011;64237;52.438;13.240;2023-10-08T06:35:28;4.22;;;1.50;;
75645;SDS011;64237;52.438;13.240;2023-10-08T06:37:54;8.80;;;2.20;;
75645;SDS011;64237;52.438;13.240;2023-10-08T06:40:22;7.32;;;2.30;;
75645;SDS011;64237;52.438;13.240;2023-10-08T06:43:06;8.65;;;1.83;;
75645;SDS011;64237;52.438;13.240;2023-10-08T06:48:14;7.95;;;2.00;;
75645;SDS011;64237;52.438;13.240;2023-10-08T06:50:48;8.80;;;2.13;;
75645;SDS011;64237;52.438;13.240;2023-10-08T06:55:40;7.60;;;1.80;;
75645;SDS011;64237;52.438;13.240;2023-10-08T06:58:07;7.43;;;2.10;;
75645;SDS011;64237;52.438;13.240;2023-10-08T07:00:39;7.72;;;1.70;;
75645;SDS011;64237;52.438;13.240;2023-10-08T07:03:12;11.65;;;2.47;;
75645;SDS011;64237;52.438;13.240;2023-10-08T07:05:47;6.15;;;1.77;;
75645;SDS011;64237;52.438;13.240;2023-10-08T07:08:23;9.45;;;2.10;;
75645;SDS011;64237;52.438;13.240;2023-10-08T07:10:53;5.78;;;1.60;;
75645;SDS011;64237;52.438;13.240;2023-10-08T07:13:24;8.48;;;2.17;;
75645;SDS011;64237;52.438;13.240;2023-10-08T07:15:52;7.05;;;2.00;;
75645;SDS011;64237;52.438;13.240;2023-10-08T07:18:30;6.60;;;1.70;;
75645;SDS011;64237;52.438;13.240;2023-10-08T07:20:59;4.28;;;1.60;;
75645;SDS011;64237;52.438;13.240;2023-10-08T07:23:36;7.47;;;1.58;;
75645;SDS011;64237;52.438;13.240;2023-10-08T07:26:14;6.38;;;1.63;;
75645;SDS011;64237;52.438;13.240;2023-10-08T07:28:45;9.20;;;1.77;;
75645;SDS011;64237;52.438;13.240;2023-10-08T07:31:18;7.43;;;1.95;;
75645;SDS011;64237;52.438;13.240;2023-10-08T07:33:46;6.97;;;2.00;;
75645;SDS011;64237;52.438;13.240;2023-10-08T07:36:15;5.22;;;1.67;;
75645;SDS011;64237;52.438;13.240;2023-10-08T07:38:43;4.55;;;1.50;;
75645;SDS011;64237;52.438;13.240;2023-10-08T07:41:15;5.97;;;1.63;;
75645;SDS011;64237;52.438;13.240;2023-10-08T07:43:43;6.57;;;1.75;;
75645;SDS011;64237;52.438;13.240;2023-10-08T07:49:06;4.07;;;1.23;;
75645;SDS011;64237;52.438;13.240;2023-10-08T07:51:31;5.00;;;1.23;;
75645;SDS011;64237;52.438;13.240;2023-10-08T07:53:57;6.80;;;1.20;;
75645;SDS011;64237;52.438;13.240;2023-10-08T07:56:23;6.60;;;1.17;;
75645;SDS011;64237;52.438;13.240;2023-10-08T07:58:49;4.22;;;1.38;;
75645;SDS011;64237;52.438;13.240;2023-10-08T08:01:18;2.38;;;1.13;;
75645;SDS011;64237;52.438;13.240;2023-10-08T08:03:45;4.10;;;1.25;;
75645;SDS011;64237;52.438;13.240;2023-10-08T08:06:13;4.25;;;1.10;;
75645;SDS011;64237;52.438;13.240;2023-10-08T08:08:39;4.07;;;1.38;;
75645;SDS011;64237;52.438;13.240;2023-10-08T08:11:05;5.95;;;1.13;;
75645;SDS011;64237;52.438;13.240;2023-10-08T08:13:37;3.20;;;1.50;;
75645;SDS011;64237;52.438;13.240;2023-10-08T08:16:04;3.90;;;1.05;;
75645;SDS011;64237;52.438;13.240;2023-10-08T08:18:51;2.05;;;0.80;;
75645;SDS011;64237;52.438;13.240;2023-10-08T08:21:18;3.53;;;1.10;;
75645;SDS011;64237;52.438;13.240;2023-10-08T08:23:53;4.95;;;1.27;;
75645;SDS011;64237;52.438;13.240;2023-10-08T08:26:29;3.88;;;1.02;;
75645;SDS011;64237;52.438;13.240;2023-10-08T08:29:07;3.78;;;1.20;;
75645;SDS011;64237;52.438;13.240;2023-10-08T08:31:34;4.35;;;1.40;;
75645;SDS011;64237;52.438;13.240;2023-10-08T08:36:36;4.93;;;1.33;;
75645;SDS011;64237;52.438;13.240;2023-10-08T08:39:04;3.50;;;1.05;;
75645;SDS011;64237;52.438;13.240;2023-10-08T08:41:30;5.07;;;1.10;;
75645;SDS011;64237;52.438;13.240;2023-10-08T08:43:58;4.63;;;1.30;;
75645;SDS011;64237;52.438;13.240;2023-10-08T08:46:34;2.75;;;0.95;;
75645;SDS011;64237;52.438;13.240;2023-10-08T08:49:02;2.88;;;1.00;;
75645;SDS011;64237;52.438;13.240;2023-10-08T08:51:32;3.65;;;1.00;;
75645;SDS011;64237;52.438;13.240;2023-10-08T08:56:33;3.65;;;0.90;;
75645;SDS011;64237;52.438;13.240;2023-10-08T08:59:04;4.53;;;1.20;;
75645;SDS011;64237;52.438;13.240;2023-10-08T09:01:30;2.63;;;0.90;;
75645;SDS011;64237;52.438;13.240;2023-10-08T09:04:00;3.30;;;0.90;;
75645;SDS011;64237;52.438;13.240;2023-10-08T09:06:27;3.15;;;1.30;;
75645;SDS011;64237;52.438;13.240;2023-10-08T09:08:52;4.22;;;1.13;;
75645;SDS011;64237;52.438;13.240;2023-10-08T09:11:20;7.97;;;2.75;;
75645;SDS011;64237;52.438;13.240;2023-10-08T09:13:46;8.70;;;2.20;;
75645;SDS011;64237;52.438;13.240;2023-10-08T09:16:15;4.25;;;1.35;;
75645;SDS011;64237;52.438;13.240;2023-10-08T09:18:44;2.78;;;0.65;;
75645;SDS011;64237;52.438;13.240;2023-10-08T09:21:19;1.08;;;0.70;;
75645;SDS011;64237;52.438;13.240;2023-10-08T09:23:51;1.85;;;0.80;;
75645;SDS011;64237;52.438;13.240;2023-10-08T09:26:22;3.63;;;1.52;;
75645;SDS011;64237;52.438;13.240;2023-10-08T09:28:48;1.52;;;0.50;;
75645;SDS011;64237;52.438;13.240;2023-10-08T09:31:16;0.95;;;0.57;;
75645;SDS011;64237;52.438;13.240;2023-10-08T09:33:43;1.25;;;0.52;;
75645;SDS011;64237;52.438;13.240;2023-10-08T09:36:21;2.10;;;0.63;;
75645;SDS011;64237;52.438;13.240;2023-10-08T09:39:05;3.08;;;0.77;;
75645;SDS011;64237;52.438;13.240;2023-10-08T09:41:32;3.50;;;0.80;;
75645;SDS011;64237;52.438;13.240;2023-10-08T09:43:58;1.83;;;0.50;;
75645;SDS011;64237;52.438;13.240;2023-10-08T09:46:33;4.38;;;0.63;;
75645;SDS011;64237;52.438;13.240;2023-10-08T09:49:06;3.03;;;0.77;;
75645;SDS011;64237;52.438;13.240;2023-10-08T09:51:33;1.98;;;0.70;;
75645;SDS011;64237;52.438;13.240;2023-10-08T09:56:35;2.13;;;0.60;;
75645;SDS011;64237;52.438;13.240;2023-10-08T09:59:03;3.22;;;0.80;;
75645;SDS011;64237;52.438;13.240;2023-10-08T10:01:32;2.08;;;0.60;;
75645;SDS011;64237;52.438;13.240;2023-10-08T10:06:54;0.73;;;0.50;;
75645;SDS011;64237;52.438;13.240;2023-10-08T10:09:26;3.35;;;0.88;;
75645;SDS011;64237;52.438;13.240;2023-10-08T10:14:24;2.83;;;1.38;;
75645;SDS011;64237;52.438;13.240;2023-10-08T10:17:09;1.70;;;1.05;;
75645;SDS011;64237;52.438;13.240;2023-10-08T10:19:42;1.38;;;0.75;;
75645;SDS011;64237;52.438;13.240;2023-10-08T10:22:12;3.08;;;1.13;;
75645;SDS011;64237;52.438;13.240;2023-10-08T10:24:42;3.05;;;1.50;;
75645;SDS011;64237;52.438;13.240;2023-10-08T10:27:26;3.13;;;0.68;;
75645;SDS011;64237;52.438;13.240;2023-10-08T10:29:53;2.63;;;0.60;;
75645;SDS011;64237;52.438;13.240;2023-10-08T10:32:28;2.70;;;0.70;;
75645;SDS011;64237;52.438;13.240;2023-10-08T10:34:54;2.72;;;0.57;;
75645;SDS011;64237;52.438;13.240;2023-10-08T10:37:22;1.77;;;0.60;;
75645;SDS011;64237;52.438;13.240;2023-10-08T10:45:13;0.85;;;0.60;;
75645;SDS011;64237;52.438;13.240;2023-10-08T10:47:59;2.85;;;0.50;;
75645;SDS011;64237;52.438;13.240;2023-10-08T10:50:42;2.95;;;0.70;;
75645;SDS011;64237;52.438;13.240;2023-10-08T10:53:29;0.60;;;0.40;;
75645;SDS011;64237;52.438;13.240;2023-10-08T10:58:34;1.80;;;0.50;;
75645;SDS011;64237;52.438;13.240;2023-10-08T11:01:09;2.25;;;0.57;;
75645;SDS011;64237;52.438;13.240;2023-10-08T11:04:11;2.30;;;0.70;;
75645;SDS011;64237;52.438;13.240;2023-10-08T11:06:53;0.80;;;0.50;;
75645;SDS011;64237;52.438;13.240;2023-10-08T11:09:32;0.95;;;0.50;;
75645;SDS011;64237;52.438;13.240;2023-10-08T11:12:20;0.28;;;0.22;;
75645;SDS011;64237;52.438;13.240;2023-10-08T11:15:13;1.13;;;0.73;;
75645;SDS011;64237;52.438;13.240;2023-10-08T11:17:41;5.72;;;3.35;;
75645;SDS011;64237;52.438;13.240;2023-10-08T11:20:26;2.60;;;1.35;;
75645;SDS011;64237;52.438;13.240;2023-10-08T11:22:53;1.52;;;0.60;;
75645;SDS011;64237;52.438;13.240;2023-10-08T11:26:00;2.42;;;0.80;;
75645;SDS011;64237;52.438;13.240;2023-10-08T11:28:39;1.27;;;0.50;;
75645;SDS011;64237;52.438;13.240;2023-10-08T11:31:22;1.73;;;0.55;;
75645;SDS011;64237;52.438;13.240;2023-10-08T11:33:49;1.45;;;0.45;;
75645;SDS011;64237;52.438;13.240;2023-10-08T11:36:21;2.25;;;0.68;;
75645;SDS011;64237;52.438;13.240;2023-10-08T11:38:53;0.55;;;0.40;;
75645;SDS011;64237;52.438;13.240;2023-10-08T11:41:26;2.13;;;1.10;;
75645;SDS011;64237;52.438;13.240;2023-10-08T11:44:01;2.65;;;1.00;;
75645;SDS011;64237;52.438;13.240;2023-10-08T11:46:29;2.47;;;0.50;;
75645;SDS011;64237;52.438;13.240;2023-10-08T11:49:19;1.13;;;0.55;;
75645;SDS011;64237;52.438;13.240;2023-10-08T11:51:45;1.27;;;0.45;;
75645;SDS011;64237;52.438;13.240;2023-10-08T11:54:23;2.25;;;0.70;;
75645;SDS011;64237;52.438;13.240;2023-10-08T11:56:48;2.47;;;1.20;;
75645;SDS011;64237;52.438;13.240;2023-10-08T11:59:14;2.70;;;1.13;;
75645;SDS011;64237;52.438;13.240;2023-10-08T12:01:45;1.73;;;1.00;;
75645;SDS011;64237;52.438;13.240;2023-10-08T12:04:11;3.22;;;0.90;;
75645;SDS011;64237;52.438;13.240;2023-10-08T12:06:53;0.65;;;0.50;;
75645;SDS011;64237;52.438;13.240;2023-10-08T12:09:23;2.22;;;0.50;;
75645;SDS011;64237;52.438;13.240;2023-10-08T12:11:55;1.33;;;0.60;;
75645;SDS011;64237;52.438;13.240;2023-10-08T12:14:31;6.82;;;4.05;;
75645;SDS011;64237;52.438;13.240;2023-10-08T12:16:59;2.30;;;1.00;;
75645;SDS011;64237;52.438;13.240;2023-10-08T12:19:25;3.20;;;0.60;;
75645;SDS011;64237;52.438;13.240;2023-10-08T12:21:57;1.65;;;0.65;;
75645;SDS011;64237;52.438;13.240;2023-10-08T12:24:25;2.60;;;0.50;;
75645;SDS011;64237;52.438;13.240;2023-10-08T12:27:01;0.68;;;0.47;;
75645;SDS011;64237;52.438;13.240;2023-10-08T12:29:28;1.88;;;0.63;;
75645;SDS011;64237;52.438;13.240;2023-10-08T12:31:53;1.30;;;0.40;;
75645;SDS011;64237;52.438;13.240;2023-10-08T12:34:25;11.77;;;7.60;;
75645;SDS011;64237;52.438;13.240;2023-10-08T12:36:53;18.15;;;11.98;;
75645;SDS011;64237;52.438;13.240;2023-10-08T12:39:19;6.80;;;1.73;;
75645;SDS011;64237;52.438;13.240;2023-10-08T12:41:50;9.75;;;2.53;;
75645;SDS011;64237;52.438;13.240;2023-10-08T12:44:24;3.70;;;1.17;;
75645;SDS011;64237;52.438;13.240;2023-10-08T12:46:52;5.22;;;1.75;;
75645;SDS011;64237;52.438;13.240;2023-10-08T12:49:24;2.80;;;1.40;;
75645;SDS011;64237;52.438;13.240;2023-10-08T12:51:53;4.82;;;1.60;;
75645;SDS011;64237;52.438;13.240;2023-10-08T12:54:19;4.95;;;1.30;;
75645;SDS011;64237;52.438;13.240;2023-10-08T12:56:48;3.88;;;1.55;;
75645;SDS011;64237;52.438;13.240;2023-10-08T12:59:17;5.15;;;1.60;;
75645;SDS011;64237;52.438;13.240;2023-10-08T13:01:52;2.28;;;0.68;;
75645;SDS011;64237;52.438;13.240;2023-10-08T13:04:22;1.90;;;0.50;;
75645;SDS011;64237;52.438;13.240;2023-10-08T13:07:00;2.67;;;0.75;;
75645;SDS011;64237;52.438;13.240;2023-10-08T13:09:27;2.83;;;0.60;;
75645;SDS011;64237;52.438;13.240;2023-10-08T13:11:55;1.42;;;0.65;;
75645;SDS011;64237;52.438;13.240;2023-10-08T13:14:21;2.20;;;0.93;;
75645;SDS011;64237;52.438;13.240;2023-10-08T13:16:48;3.22;;;0.50;;
75645;SDS011;64237;52.438;13.240;2023-10-08T13:19:14;4.40;;;1.27;;
75645;SDS011;64237;52.438;13.240;2023-10-08T13:21:40;5.18;;;2.17;;
75645;SDS011;64237;52.438;13.240;2023-10-08T13:24:06;10.70;;;6.22;;
75645;SDS011;64237;52.438;13.240;2023-10-08T13:26:34;6.10;;;3.33;;
75645;SDS011;64237;52.438;13.240;2023-10-08T13:29:02;5.65;;;2.90;;
75645;SDS011;64237;52.438;13.240;2023-10-08T13:31:27;4.35;;;2.08;;
75645;SDS011;64237;52.438;13.240;2023-10-08T13:33:54;7.10;;;2.78;;
75645;SDS011;64237;52.438;13.240;2023-10-08T13:36:22;1.20;;;0.57;;
75645;SDS011;64237;52.438;13.240;2023-10-08T13:38:49;9.85;;;5.35;;
75645;SDS011;64237;52.438;13.240;2023-10-08T13:41:15;6.15;;;2.75;;
75645;SDS011;64237;52.438;13.240;2023-10-08T13:43:50;7.15;;;2.25;;
75645;SDS011;64237;52.438;13.240;2023-10-08T13:46:33;8.00;;;2.72;;
75645;SDS011;64237;52.438;13.240;2023-10-08T13:49:01;2.03;;;1.00;;
75645;SDS011;64237;52.438;13.240;2023-10-08T13:51:29;4.63;;;1.42;;
75645;SDS011;64237;52.438;13.240;2023-10-08T13:53:56;1.63;;;0.88;;
75645;SDS011;64237;52.438;13.240;2023-10-08T13:56:25;2.22;;;0.70;;
75645;SDS011;64237;52.438;13.240;2023-10-08T13:58:54;1.40;;;0.63;;
75645;SDS011;64237;52.438;13.240;2023-10-08T14:01:32;5.15;;;0.80;;
75645;SDS011;64237;52.438;13.240;2023-10-08T14:06:45;2.90;;;0.70;;
75645;SDS011;64237;52.438;13.240;2023-10-08T14:09:17;2.10;;;0.90;;
75645;SDS011;64237;52.438;13.240;2023-10-08T14:11:47;1.13;;;0.35;;
75645;SDS011;64237;52.438;13.240;2023-10-08T14:14:15;2.30;;;0.60;;
75645;SDS011;64237;52.438;13.240;2023-10-08T14:16:45;3.72;;;1.25;;
75645;SDS011;64237;52.438;13.240;2023-10-08T14:19:16;5.57;;;1.92;;
75645;SDS011;64237;52.438;13.240;2023-10-08T14:21:48;10.55;;;3.70;;
75645;SDS011;64237;52.438;13.240;2023-10-08T14:24:25;22.77;;;9.77;;
75645;SDS011;64237;52.438;13.240;2023-10-08T14:27:04;7.75;;;2.72;;
75645;SDS011;64237;52.438;13.240;2023-10-08T14:29:36;14.48;;;5.07;;
75645;SDS011;64237;52.438;13.240;2023-10-08T14:32:09;5.60;;;1.58;;
75645;SDS011;64237;52.438;13.240;2023-10-08T14:34:41;7.90;;;2.58;;
75645;SDS011;64237;52.438;13.240;2023-10-08T14:37:12;10.60;;;3.90;;
75645;SDS011;64237;52.438;13.240;2023-10-08T14:40:03;11.55;;;3.95;;
75645;SDS011;64237;52.438;13.240;2023-10-08T14:42:53;5.68;;;2.10;;
75645;SDS011;64237;52.438;13.240;2023-10-08T14:45:25;5.50;;;1.65;;
75645;SDS011;64237;52.438;13.240;2023-10-08T14:47:52;4.43;;;1.98;;
75645;SDS011;64237;52.438;13.240;2023-10-08T14:50:19;6.82;;;1.90;;
75645;SDS011;64237;52.438;13.240;2023-10-08T14:52:47;4.22;;;1.25;;
75645;SDS011;64237;52.438;13.240;2023-10-08T14:55:15;3.15;;;0.90;;
75645;SDS011;64237;52.438;13.240;2023-10-08T14:57:47;3.20;;;0.95;;
75645;SDS011;64237;52.438;13.240;2023-10-08T15:00:26;6.88;;;2.95;;
75645;SDS011;64237;52.438;13.240;2023-10-08T15:02:52;7.28;;;3.17;;
75645;SDS011;64237;52.438;13.240;2023-10-08T15:05:23;6.63;;;3.10;;
75645;SDS011;64237;52.438;13.240;2023-10-08T15:07:51;11.50;;;4.72;;
75645;SDS011;64237;52.438;13.240;2023-10-08T15:10:18;12.88;;;5.68;;
75645;SDS011;64237;52.438;13.240;2023-10-08T15:12:47;11.98;;;4.50;;
75645;SDS011;64237;52.438;13.240;2023-10-08T15:15:26;13.15;;;5.55;;
75645;SDS011;64237;52.438;13.240;2023-10-08T15:17:56;8.82;;;3.88;;
75645;SDS011;64237;52.438;13.240;2023-10-08T15:20:22;4.43;;;1.92;;
75645;SDS011;64237;52.438;13.240;2023-10-08T15:22:51;12.85;;;5.53;;
75645;SDS011;64237;52.438;13.240;2023-10-08T15:25:17;15.60;;;7.75;;
75645;SDS011;64237;52.438;13.240;2023-10-08T15:27:46;15.10;;;7.15;;
75645;SDS011;64237;52.438;13.240;2023-10-08T15:30:18;18.40;;;8.02;;
75645;SDS011;64237;52.438;13.240;2023-10-08T15:35:29;5.40;;;2.00;;
75645;SDS011;64237;52.438;13.240;2023-10-08T15:37:58;4.88;;;1.77;;
75645;SDS011;64237;52.438;13.240;2023-10-08T15:40:29;3.70;;;1.25;;
75645;SDS011;64237;52.438;13.240;2023-10-08T15:43:10;3.15;;;1.20;;
75645;SDS011;64237;52.438;13.240;2023-10-08T15:45:39;3.08;;;0.85;;
75645;SDS011;64237;52.438;13.240;2023-10-08T15:48:09;4.00;;;1.00;;
75645;SDS011;64237;52.438;13.240;2023-10-08T15:50:34;2.45;;;0.90;;
75645;SDS011;64237;52.438;13.240;2023-10-08T15:53:00;4.93;;;1.75;;
75645;SDS011;64237;52.438;13.240;2023-10-08T15:55:25;6.53;;;1.83;;
75645;SDS011;64237;52.438;13.240;2023-10-08T15:57:51;8.25;;;3.20;;
75645;SDS011;64237;52.438;13.240;2023-10-08T16:00:17;18.38;;;7.68;;
75645;SDS011;64237;52.438;13.240;2023-10-08T16:02:43;22.70;;;8.73;;